Time;durP1;ratioP1;P1;durP2;ratioP2;P2;SDS_P1;SDS_P2;PMS_P1;PMS_P2;Temp;Humidity;BMP_temperature;BMP_pressure;BME280_temperature;BME280_humidity;BME280_pressure;Samples;Min_cycle;Max_cycle;Signal;HPM_P1;HPM_P2
2023/02/12 00:00:51;;;;;;;;;;;;;;;-1.34;91.99;98262.31;5105695;28;19928;-66
2023/02/12 00:03:17;;;;;;;;;;;;;;;-1.30;92.24;98260.81;5100473;28;19928;-66
2023/02/12 00:05:44;;;;;;;;;;;;;;;-1.25;92.31;98268.13;5085277;28;20026;-66
2023/02/12 00:08:10;;;;;;;;;;;;;;;-1.20;92.39;98263.69;5088607;28;20128;-66
2023/02/12 00:10:39;;;;;;;;;;;;;;;-1.19;92.17;98269.91;5084317;28;19974;-66
2023/02/12 00:13:04;;;;;;;;;;;;;;;-1.17;92.23;98273.97;5088398;28;19932;-66
2023/02/12 00:15:30;;;;;;;;;;;;;;;-1.13;91.84;98260.88;5088229;28;20238;-66
2023/02/12 00:17:56;;;;;;;;;;;;;;;-1.10;91.39;98273.81;5085859;28;19928;-66
2023/02/12 00:20:22;;;;;;;;;;;;;;;-1.06;90.58;98274.19;5086302;28;19967;-66
2023/02/12 00:22:49;;;;;;;;;;;;;;;-1.01;89.62;98285.03;5086380;28;19970;-66
2023/02/12 00:25:15;;;;;;;;;;;;;;;-1.05;88.13;98292.75;5085407;28;19932;-65
2023/02/12 00:27:41;;;;;;;;;;;;;;;-1.15;86.67;98285.28;5084650;28;19928;-66
2023/02/12 00:30:07;;;;;;;;;;;;;;;-1.26;86.38;98269.19;5068159;28;20068;-66
2023/02/12 00:32:36;;;;;;;;;;;;;;;-1.34;85.76;98295.31;5084575;28;19928;-66
2023/02/12 00:35:02;;;;;;;;;;;;;;;-1.41;85.67;98307.22;5087734;28;20458;-66
2023/02/12 00:37:28;;;;;;;;;;;;;;;-1.42;85.43;98314.44;5105994;28;19981;-65
2023/02/12 00:39:55;;;;;;;;;;;;;;;-1.41;85.32;98332.16;5106289;28;20205;-66
2023/02/12 00:42:21;;;;;;;;;;;;;;;-1.46;85.01;98329.34;5107319;28;20383;-66
2023/02/12 00:44:47;;;;;;;;;;;;;;;-1.51;85.17;98348.00;5106943;28;19927;-66
2023/02/12 00:47:12;;;;;;;;;;;;;;;-1.57;85.05;98339.84;5103461;28;20480;-67
2023/02/12 00:49:38;;;;;;;;;;;;;;;-1.64;84.94;98355.22;5106289;28;19927;-66
2023/02/12 00:52:04;;;;;;;;;;;;;;;-1.70;84.84;98364.19;5107758;28;20420;-66
2023/02/12 00:54:30;;;;;;;;;;;;;;;-1.73;84.58;98369.97;5105505;28;19934;-66
2023/02/12 00:56:57;;;;;;;;;;;;;;;-1.77;84.64;98347.38;5106877;28;19950;-66
2023/02/12 00:59:28;;;;;;;;;;;;;;;-1.88;84.31;98387.31;5103968;28;20360;-66
2023/02/12 01:01:55;;;;;;;;;;;;;;;-1.92;84.83;98388.00;5106417;28;19931;-67
2023/02/12 01:04:22;;;;;;;;;;;;;;;-1.96;84.99;98390.31;5106132;28;19928;-66
2023/02/12 01:06:48;;;;;;;;;;;;;;;-1.96;85.35;98400.19;5102801;28;20030;-66
2023/02/12 01:09:14;;;;;;;;;;;;;;;-1.97;85.43;98410.13;5104332;28;19928;-66
2023/02/12 01:11:40;;;;;;;;;;;;;;;-2.03;85.22;98424.41;5105378;28;19934;-66
2023/02/12 01:14:07;;;;;;;;;;;;;;;-2.10;85.29;98426.38;5104943;28;20247;-66
2023/02/12 01:16:35;;;;;;;;;;;;;;;-2.15;85.50;98429.72;5104803;28;19928;-66
2023/02/12 01:19:01;;;;;;;;;;;;;;;-2.19;85.82;98445.41;5067413;28;20345;-66
2023/02/12 01:21:29;;;;;;;;;;;;;;;-2.19;85.76;98444.59;5083715;28;19981;-66
2023/02/12 01:23:55;;;;;;;;;;;;;;;-2.20;85.55;98449.13;5085120;28;19934;-66
2023/02/12 01:26:21;;;;;;;;;;;;;;;-2.23;85.12;98457.63;5084760;28;19963;-66
2023/02/12 01:28:48;;;;;;;;;;;;;;;-2.29;85.25;98464.69;5087843;28;19963;-66
2023/02/12 01:31:16;;;;;;;;;;;;;;;-2.34;85.09;98467.22;5066741;28;19960;-66
2023/02/12 01:33:42;;;;;;;;;;;;;;;-2.37;85.22;98458.81;5086657;28;20027;-66
2023/02/12 01:36:08;;;;;;;;;;;;;;;-2.39;85.15;98482.31;5083730;28;20027;-66
2023/02/12 01:38:34;;;;;;;;;;;;;;;-2.43;84.91;98482.75;5083290;28;19936;-66
2023/02/12 01:41:03;;;;;;;;;;;;;;;-2.49;84.90;98483.66;5082670;28;19941;-67
2023/02/12 01:43:30;;;;;;;;;;;;;;;-2.49;84.69;98480.97;5085712;28;20080;-67
2023/02/12 01:45:58;;;;;;;;;;;;;;;-2.53;84.27;98501.19;5102378;28;20452;-66
2023/02/12 01:48:27;;;;;;;;;;;;;;;-2.55;84.20;98503.28;5089120;28;20122;-66
2023/02/12 01:50:53;;;;;;;;;;;;;;;-2.55;83.86;98526.56;5094375;28;19973;-67
2023/02/12 01:53:20;;;;;;;;;;;;;;;-2.59;83.50;98521.63;5102614;28;20112;-66
2023/02/12 01:55:47;;;;;;;;;;;;;;;-2.61;83.38;98530.94;5106347;28;20030;-66
2023/02/12 01:58:14;;;;;;;;;;;;;;;-2.67;83.71;98534.47;5105981;28;19928;-67
2023/02/12 02:00:41;;;;;;;;;;;;;;;-2.69;83.59;98541.91;5104379;28;19954;-67
2023/02/12 02:03:06;;;;;;;;;;;;;;;-2.71;83.60;98547.47;5102244;28;19927;-66
2023/02/12 02:05:40;;;;;;;;;;;;;;;-2.70;83.63;98562.50;5106664;28;19927;-66
2023/02/12 02:08:06;;;;;;;;;;;;;;;-2.71;83.45;98579.59;5102313;28;19935;-67
2023/02/12 02:10:32;;;;;;;;;;;;;;;-2.71;83.13;98563.53;5105512;28;19928;-66
2023/02/12 02:15:45;;;;;;;;;;;;;;;-2.79;83.42;98587.88;5082073;28;20005;-66
2023/02/12 02:18:14;;;;;;;;;;;;;;;-2.81;83.69;98597.97;5083385;28;20164;-66
2023/02/12 02:20:59;;;;;;;;;;;;;;;-2.85;83.40;98590.41;5085966;28;20403;-66
2023/02/12 02:23:38;;;;;;;;;;;;;;;-2.88;83.22;98612.25;5084020;28;19951;-66
2023/02/12 02:26:24;;;;;;;;;;;;;;;-2.87;82.79;98615.72;5085775;28;19928;-66
2023/02/12 02:28:58;;;;;;;;;;;;;;;-2.83;82.35;98632.16;5086096;28;19964;-66
2023/02/12 02:31:30;;;;;;;;;;;;;;;-2.83;81.67;98630.28;5082714;28;20428;-66
2023/02/12 02:33:58;;;;;;;;;;;;;;;-2.86;81.66;98636.09;5085278;28;20035;-66
2023/02/12 02:36:27;;;;;;;;;;;;;;;-2.88;81.24;98640.84;5084860;28;19928;-66
2023/02/12 02:38:59;;;;;;;;;;;;;;;-2.92;81.19;98656.50;5086554;28;19928;-66
2023/02/12 02:41:27;;;;;;;;;;;;;;;-2.94;81.50;98674.63;5086354;28;19928;-66
2023/02/12 02:43:53;;;;;;;;;;;;;;;-2.90;81.33;98648.25;5085784;28;20005;-66
2023/02/12 02:46:22;;;;;;;;;;;;;;;-2.90;81.04;98669.66;5084644;28;20307;-66
2023/02/12 02:48:51;;;;;;;;;;;;;;;-2.90;80.93;98680.38;5083588;28;19960;-66
2023/02/12 02:51:18;;;;;;;;;;;;;;;-2.90;80.38;98685.72;5081836;28;19954;-66
2023/02/12 02:53:47;;;;;;;;;;;;;;;-2.93;80.19;98678.13;5083501;28;19939;-66
2023/02/12 02:56:14;;;;;;;;;;;;;;;-2.95;80.60;98697.06;5083063;28;19974;-66
2023/02/12 02:58:42;;;;;;;;;;;;;;;-2.96;80.28;98694.59;5085402;28;19932;-66
2023/02/12 03:01:11;;;;;;;;;;;;;;;-2.98;80.13;98713.53;5082830;28;20019;-66
2023/02/12 03:03:40;;;;;;;;;;;;;;;-3.07;80.31;98694.22;5085679;28;20444;-66
2023/02/12 03:06:09;;;;;;;;;;;;;;;-2.97;80.30;98711.66;5101862;28;20332;-67
2023/02/12 03:08:37;;;;;;;;;;;;;;;-2.95;80.25;98726.47;5105322;28;19928;-66
2023/02/12 03:11:05;;;;;;;;;;;;;;;-2.94;80.35;98728.13;5103679;28;19935;-66
2023/02/12 03:13:33;;;;;;;;;;;;;;;-2.99;80.38;98741.31;5105271;28;19936;-66
2023/02/12 03:16:01;;;;;;;;;;;;;;;-3.02;80.18;98761.28;5091265;28;19928;-66
2023/02/12 03:18:29;;;;;;;;;;;;;;;-3.02;80.05;98750.59;5082091;28;19934;-66
2023/02/12 03:20:58;;;;;;;;;;;;;;;-3.04;80.33;98763.34;5083152;28;20035;-66
2023/02/12 03:23:26;;;;;;;;;;;;;;;-3.01;80.33;98770.13;5086663;28;19928;-65
2023/02/12 03:25:55;;;;;;;;;;;;;;;-3.01;80.05;98781.66;5090661;28;19928;-67
2023/02/12 03:28:24;;;;;;;;;;;;;;;-3.00;79.97;98783.28;5083526;28;19928;-67
2023/02/12 03:30:52;;;;;;;;;;;;;;;-3.00;80.12;98793.19;5084808;28;20413;-67
2023/02/12 03:33:22;;;;;;;;;;;;;;;-3.03;80.45;98783.72;5086918;28;20045;-67
2023/02/12 03:35:54;;;;;;;;;;;;;;;-3.06;79.95;98792.16;5087402;28;19928;-67
2023/02/12 03:38:28;;;;;;;;;;;;;;;-3.09;80.08;98794.44;5099566;28;19963;-66
2023/02/12 03:40:58;;;;;;;;;;;;;;;-3.11;80.35;98831.25;5090952;28;19978;-66
2023/02/12 03:43:27;;;;;;;;;;;;;;;-3.11;80.20;98832.09;5086042;28;19959;-66
2023/02/12 03:45:55;;;;;;;;;;;;;;;-3.14;80.23;98830.66;5087861;28;20423;-66
2023/02/12 03:48:23;;;;;;;;;;;;;;;-3.15;80.34;98831.69;5087555;28;20168;-66
2023/02/12 03:50:51;;;;;;;;;;;;;;;-3.16;80.50;98845.25;5086291;28;20524;-66
2023/02/12 03:53:17;;;;;;;;;;;;;;;-3.18;80.52;98828.59;5085448;28;20279;-66
2023/02/12 03:55:44;;;;;;;;;;;;;;;-3.19;79.95;98851.88;5087933;28;19935;-66
2023/02/12 03:58:14;;;;;;;;;;;;;;;-3.22;79.90;98860.28;5094206;28;19927;-66
2023/02/12 04:00:40;;;;;;;;;;;;;;;-3.23;79.86;98841.78;5106707;28;20425;-66
2023/02/12 04:03:06;;;;;;;;;;;;;;;-3.26;79.46;98863.59;5107208;28;19970;-66
2023/02/12 04:05:32;;;;;;;;;;;;;;;-3.29;79.40;98864.81;5108744;28;19928;-66
2023/02/12 04:07:59;;;;;;;;;;;;;;;-3.28;79.69;98872.66;5106771;28;19927;-66
2023/02/12 04:10:28;;;;;;;;;;;;;;;-3.26;79.38;98877.78;5085648;28;20035;-66
2023/02/12 04:12:59;;;;;;;;;;;;;;;-3.27;79.18;98881.47;5085667;28;19956;-66
2023/02/12 04:15:36;;;;;;;;;;;;;;;-3.27;78.57;98892.19;5085472;28;20349;-66
2023/02/12 04:18:06;;;;;;;;;;;;;;;-3.27;78.40;98884.16;5087171;28;20391;-65
2023/02/12 04:20:39;;;;;;;;;;;;;;;-3.33;77.71;98885.81;5069347;28;19950;-67
2023/02/12 04:23:10;;;;;;;;;;;;;;;-3.43;78.28;98904.13;5085549;28;19928;-65
2023/02/12 04:25:42;;;;;;;;;;;;;;;-3.47;78.46;98908.22;5084815;28;20425;-66
2023/02/12 04:28:12;;;;;;;;;;;;;;;-3.46;78.10;98923.22;5086992;28;19928;-66
2023/02/12 04:30:43;;;;;;;;;;;;;;;-3.49;77.69;98918.28;5091794;28;20001;-66
2023/02/12 04:33:10;;;;;;;;;;;;;;;-3.53;77.51;98943.78;5090285;28;19934;-66
2023/02/12 04:35:40;;;;;;;;;;;;;;;-3.54;77.82;98940.28;5104415;28;19955;-66
2023/02/12 04:38:09;;;;;;;;;;;;;;;-3.58;78.17;98934.53;5104263;28;19934;-66
2023/02/12 04:40:37;;;;;;;;;;;;;;;-3.59;77.21;98922.22;5104559;28;20035;-66
2023/02/12 04:43:02;;;;;;;;;;;;;;;-3.61;76.93;98947.47;5106417;28;20046;-65
2023/02/12 04:45:29;;;;;;;;;;;;;;;-3.63;76.66;98950.34;5103220;27;20432;-66
2023/02/12 04:47:56;;;;;;;;;;;;;;;-3.66;76.08;98969.47;5101976;28;19928;-66
2023/02/12 04:50:22;;;;;;;;;;;;;;;-3.65;76.05;98962.28;5106980;28;19931;-65
2023/02/12 04:52:48;;;;;;;;;;;;;;;-3.67;75.86;98969.66;5107078;28;20390;-65
2023/02/12 04:55:14;;;;;;;;;;;;;;;-3.71;75.61;98985.28;5088970;28;19928;-65
2023/02/12 04:57:39;;;;;;;;;;;;;;;-3.73;75.70;98995.34;5099433;28;19942;-66
2023/02/12 05:00:06;;;;;;;;;;;;;;;-3.71;75.85;98980.75;5085021;28;19927;-66
2023/02/12 05:02:33;;;;;;;;;;;;;;;-3.71;75.34;98991.44;5096495;28;20440;-66
2023/02/12 05:05:00;;;;;;;;;;;;;;;-3.73;75.41;98977.47;5090629;28;20516;-66
2023/02/12 05:07:25;;;;;;;;;;;;;;;-3.73;75.41;99014.06;5077895;28;19939;-66
2023/02/12 05:09:51;;;;;;;;;;;;;;;-3.72;75.50;99005.81;5095751;28;20322;-67
2023/02/12 05:12:17;;;;;;;;;;;;;;;-3.74;75.74;99002.53;5090018;28;20488;-66
2023/02/12 05:14:43;;;;;;;;;;;;;;;-3.75;75.53;99013.41;5102150;28;20022;-66
2023/02/12 05:17:08;;;;;;;;;;;;;;;-3.77;75.42;99016.31;5067743;28;19928;-66
2023/02/12 05:19:34;;;;;;;;;;;;;;;-3.76;75.29;99025.13;5086248;28;19963;-66
2023/02/12 05:22:03;;;;;;;;;;;;;;;-3.76;75.39;99062.53;5113132;27;19928;-66
2023/02/12 05:24:28;;;;;;;;;;;;;;;-3.78;75.19;99054.72;5085250;28;19928;-66
2023/02/12 05:26:54;;;;;;;;;;;;;;;-3.75;74.78;99048.16;5069942;28;19973;-66
2023/02/12 05:29:20;;;;;;;;;;;;;;;-3.75;74.87;99077.53;5082784;27;19928;-68
2023/02/12 05:31:46;;;;;;;;;;;;;;;-3.77;74.93;99061.72;5102139;27;20422;-66
2023/02/12 05:34:12;;;;;;;;;;;;;;;-3.73;74.60;99080.88;5095202;28;19963;-66
2023/02/12 05:36:38;;;;;;;;;;;;;;;-3.71;74.32;99092.97;5074825;28;20170;-66
2023/02/12 05:39:06;;;;;;;;;;;;;;;-3.79;74.44;99090.50;5075732;28;19928;-66
2023/02/12 05:41:34;;;;;;;;;;;;;;;-3.74;74.31;99080.03;5098464;28;19928;-66
2023/02/12 05:44:00;;;;;;;;;;;;;;;-3.76;74.21;99103.44;5099445;28;20026;-65
2023/02/12 05:46:25;;;;;;;;;;;;;;;-3.78;73.92;99092.13;5099536;28;20034;-66
2023/02/12 05:48:51;;;;;;;;;;;;;;;-3.81;73.89;99105.06;5099636;28;19928;-67
2023/02/12 05:51:21;;;;;;;;;;;;;;;-3.82;73.62;99101.59;5087199;28;19932;-66
2023/02/12 05:53:48;;;;;;;;;;;;;;;-3.81;73.27;99123.75;5093807;28;19928;-66
2023/02/12 05:56:16;;;;;;;;;;;;;;;-3.83;73.24;99112.44;5103846;28;19927;-66
2023/02/12 05:58:44;;;;;;;;;;;;;;;-3.81;72.74;99121.09;5106755;28;19928;-66
2023/02/12 06:01:11;;;;;;;;;;;;;;;-3.83;72.79;99137.31;5106925;28;19963;-66
2023/02/12 06:03:37;;;;;;;;;;;;;;;-3.81;72.18;99148.66;5104791;28;19928;-66
2023/02/12 06:06:03;;;;;;;;;;;;;;;-3.78;72.67;99172.28;5106777;28;20317;-67
2023/02/12 06:08:28;;;;;;;;;;;;;;;-3.78;73.16;99163.44;5089736;28;19955;-66
2023/02/12 06:10:57;;;;;;;;;;;;;;;-3.75;73.58;99189.75;5096314;28;19932;-66
2023/02/12 06:13:25;;;;;;;;;;;;;;;-3.77;73.50;99165.09;5083466;28;19928;-66
2023/02/12 06:15:51;;;;;;;;;;;;;;;-3.81;74.03;99174.53;5085504;28;19951;-66
2023/02/12 06:18:16;;;;;;;;;;;;;;;-3.82;73.92;99173.72;5086214;28;20551;-66
2023/02/12 06:20:42;;;;;;;;;;;;;;;-3.83;73.56;99192.59;5084290;28;19932;-66
2023/02/12 06:23:08;;;;;;;;;;;;;;;-3.84;73.98;99189.09;5086501;28;19939;-66
2023/02/12 06:25:33;;;;;;;;;;;;;;;-3.84;73.84;99186.41;5087017;28;20120;-66
2023/02/12 06:27:59;;;;;;;;;;;;;;;-3.88;73.55;99204.72;5088134;28;19928;-67
2023/02/12 06:30:26;;;;;;;;;;;;;;;-3.88;72.97;99212.72;5101807;28;19928;-67
2023/02/12 06:32:52;;;;;;;;;;;;;;;-3.88;72.96;99226.09;5095132;28;20353;-66
2023/02/12 06:35:18;;;;;;;;;;;;;;;-3.85;73.01;99235.53;5101001;28;19940;-67
2023/02/12 06:37:44;;;;;;;;;;;;;;;-3.86;72.89;99255.25;5101108;28;19950;-66
2023/02/12 06:40:10;;;;;;;;;;;;;;;-3.85;73.09;99244.38;5101752;28;19927;-67
2023/02/12 06:42:36;;;;;;;;;;;;;;;-3.94;72.35;99239.38;5088509;28;20493;-66
2023/02/12 06:45:02;;;;;;;;;;;;;;;-3.90;71.97;99246.84;5089977;28;19967;-66
2023/02/12 06:47:30;;;;;;;;;;;;;;;-3.88;71.51;99247.47;5097037;28;19962;-66
2023/02/12 06:49:56;;;;;;;;;;;;;;;-3.89;71.52;99269.00;4747951;27;10000355;-66
2023/02/12 06:52:21;;;;;;;;;;;;;;;-3.87;71.38;99286.50;5088213;28;19928;-66
2023/02/12 06:54:47;;;;;;;;;;;;;;;-3.80;71.40;99275.03;5102460;28;20369;-66
2023/02/12 06:57:13;;;;;;;;;;;;;;;-3.78;71.12;99291.69;5083604;28;19928;-66
2023/02/12 06:59:38;;;;;;;;;;;;;;;-3.76;70.69;99292.31;5084471;28;19936;-66
2023/02/12 07:02:04;;;;;;;;;;;;;;;-3.82;70.06;99277.09;5102037;27;19967;-66
2023/02/12 07:04:32;;;;;;;;;;;;;;;-3.83;70.46;99305.63;5083734;28;19928;-66
2023/02/12 07:06:57;;;;;;;;;;;;;;;-3.80;70.46;99309.78;5086164;28;20053;-66
2023/02/12 07:09:23;;;;;;;;;;;;;;;-3.78;69.96;99292.53;5088923;28;20371;-67
2023/02/12 07:11:49;;;;;;;;;;;;;;;-3.79;69.57;99304.25;5085907;28;19928;-66
2023/02/12 07:14:15;;;;;;;;;;;;;;;-3.82;69.47;99291.28;5085295;28;19928;-67
2023/02/12 07:16:41;;;;;;;;;;;;;;;-3.88;69.10;99305.41;5100935;28;19941;-66
2023/02/12 07:19:13;;;;;;;;;;;;;;;-3.94;69.40;99336.38;5087474;28;19935;-66
2023/02/12 07:21:40;;;;;;;;;;;;;;;-3.96;69.12;99318.91;5091861;28;20017;-66
2023/02/12 07:24:10;;;;;;;;;;;;;;;-3.99;69.11;99328.91;5096057;28;19932;-66
2023/02/12 07:26:36;;;;;;;;;;;;;;;-3.99;69.25;99347.63;5089657;28;19927;-66
2023/02/12 07:29:02;;;;;;;;;;;;;;;-3.95;69.17;99340.06;5099079;28;19928;-66
2023/02/12 07:31:28;;;;;;;;;;;;;;;-3.87;69.06;99355.13;5085494;28;19928;-66
2023/02/12 07:33:54;;;;;;;;;;;;;;;-3.80;68.94;99355.19;5089084;28;19935;-66
2023/02/12 07:36:20;;;;;;;;;;;;;;;-3.82;68.78;99360.75;5086872;28;19928;-66
2023/02/12 07:38:47;;;;;;;;;;;;;;;-3.88;68.76;99378.38;5087078;28;20296;-66
2023/02/12 07:41:13;;;;;;;;;;;;;;;-3.88;68.53;99374.84;5089285;28;19928;-66
2023/02/12 07:43:40;;;;;;;;;;;;;;;-3.89;68.83;99384.72;5087838;28;19928;-66
2023/02/12 07:46:10;;;;;;;;;;;;;;;-3.87;68.20;99379.19;5105582;28;19927;-66
2023/02/12 07:48:36;;;;;;;;;;;;;;;-3.83;68.17;99376.97;5087207;28;19928;-66
2023/02/12 07:51:02;;;;;;;;;;;;;;;-3.78;67.52;99369.19;5098100;28;19934;-65
2023/02/12 07:53:28;;;;;;;;;;;;;;;-3.80;66.90;99355.19;5109605;28;19934;-66
2023/02/12 07:56:03;;;;;;;;;;;;;;;-3.82;66.42;99394.66;5106989;28;19928;-66
2023/02/12 07:58:28;;;;;;;;;;;;;;;-3.79;66.10;99395.09;5106903;28;20064;-66
2023/02/12 08:00:54;;;;;;;;;;;;;;;-3.81;66.16;99393.63;5105749;28;19990;-66
2023/02/12 08:03:20;;;;;;;;;;;;;;;-3.86;66.42;99404.88;5109838;28;19931;-66
2023/02/12 08:05:45;;;;;;;;;;;;;;;-3.89;66.31;99418.63;5109635;28;20441;-66
2023/02/12 08:08:11;;;;;;;;;;;;;;;-3.93;67.12;99434.19;5107890;28;19928;-66
2023/02/12 08:10:37;;;;;;;;;;;;;;;-3.93;67.25;99446.75;5107529;28;19927;-67
2023/02/12 08:13:04;;;;;;;;;;;;;;;-3.94;66.61;99427.19;5104112;28;19928;-66
2023/02/12 08:15:30;;;;;;;;;;;;;;;-3.97;66.76;99408.06;5104086;28;19931;-66
2023/02/12 08:17:56;;;;;;;;;;;;;;;-4.03;66.72;99447.84;5089257;28;19928;-65
2023/02/12 08:20:21;;;;;;;;;;;;;;;-4.01;66.96;99459.19;5088869;28;19973;-66
2023/02/12 08:22:47;;;;;;;;;;;;;;;-3.94;66.32;99445.91;5086359;28;19928;-66
2023/02/12 08:25:13;;;;;;;;;;;;;;;-3.92;66.10;99470.56;5089050;28;19957;-66
2023/02/12 08:27:40;;;;;;;;;;;;;;;-3.91;65.99;99444.69;5085305;28;19972;-66
2023/02/12 08:30:08;;;;;;;;;;;;;;;-3.89;66.03;99456.03;5086935;28;20338;-66
2023/02/12 08:32:33;;;;;;;;;;;;;;;-3.90;65.64;99462.38;5086594;28;20482;-65
2023/02/12 08:34:59;;;;;;;;;;;;;;;-3.82;65.96;99440.06;5087390;28;20035;-65
2023/02/12 08:37:25;;;;;;;;;;;;;;;-3.80;65.25;99462.09;5099605;28;20026;-66
2023/02/12 08:39:50;;;;;;;;;;;;;;;-3.79;65.52;99464.56;5090051;27;19928;-65
2023/02/12 08:42:16;;;;;;;;;;;;;;;-3.77;65.11;99481.25;5088789;28;19973;-65
2023/02/12 08:44:42;;;;;;;;;;;;;;;-3.69;65.49;99464.25;5091808;28;19927;-65
2023/02/12 08:47:11;;;;;;;;;;;;;;;-3.60;64.52;99484.50;5107594;28;20394;-65
2023/02/12 08:49:36;;;;;;;;;;;;;;;-3.60;64.16;99476.47;5100482;28;19939;-65
2023/02/12 08:52:02;;;;;;;;;;;;;;;-3.53;64.03;99484.56;5085836;28;19928;-65
2023/02/12 08:54:29;;;;;;;;;;;;;;;-3.52;64.07;99462.16;5086707;28;20038;-65
2023/02/12 08:56:55;;;;;;;;;;;;;;;-3.57;64.16;99481.47;5085242;28;20429;-65
2023/02/12 08:59:21;;;;;;;;;;;;;;;-3.53;64.14;99495.25;5087896;28;19935;-65
2023/02/12 09:01:49;;;;;;;;;;;;;;;-3.49;63.94;99488.53;5088963;28;20372;-65
2023/02/12 09:04:17;;;;;;;;;;;;;;;-3.48;64.07;99492.00;5101736;28;19950;-66
2023/02/12 09:06:44;;;;;;;;;;;;;;;-3.45;63.28;99494.31;5090775;28;19928;-73
2023/02/12 09:09:10;;;;;;;;;;;;;;;-3.45;63.48;99519.22;5070101;28;19927;-73
2023/02/12 09:11:36;;;;;;;;;;;;;;;-3.28;63.94;99524.31;5105627;28;19927;-74
2023/02/12 09:14:03;;;;;;;;;;;;;;;-3.14;62.98;99522.56;5107025;28;19931;-73
2023/02/12 09:16:30;;;;;;;;;;;;;;;-3.17;62.67;99523.81;5106662;28;19927;-73
2023/02/12 09:18:56;;;;;;;;;;;;;;;-3.25;62.51;99534.63;5084201;28;20323;-73
2023/02/12 09:21:24;;;;;;;;;;;;;;;-3.32;62.82;99536.41;5081136;28;20360;-73
2023/02/12 09:23:50;;;;;;;;;;;;;;;-3.36;63.09;99548.47;5085409;28;19928;-73
2023/02/12 09:26:17;;;;;;;;;;;;;;;-3.28;63.06;99541.19;5088544;28;20318;-73
2023/02/12 09:28:43;;;;;;;;;;;;;;;-3.07;62.19;99549.38;5083622;28;19940;-74
2023/02/12 09:31:10;;;;;;;;;;;;;;;-3.02;61.47;99547.78;5068490;28;20608;-73
2023/02/12 09:33:35;;;;;;;;;;;;;;;-3.11;60.99;99548.13;5086528;28;19954;-72
2023/02/12 09:36:02;;;;;;;;;;;;;;;-3.10;60.99;99553.28;5086942;28;20405;-71
2023/02/12 09:38:29;;;;;;;;;;;;;;;-2.99;59.90;99541.25;5088047;28;19975;-72
2023/02/12 09:41:09;;;;;;;;;;;;;;;-3.21;60.32;99551.94;5084714;28;20748;-72
2023/02/12 09:43:40;;;;;;;;;;;;;;;-3.40;60.76;99557.91;5088286;28;20456;-71
2023/02/12 09:46:12;;;;;;;;;;;;;;;-3.20;60.67;99553.63;5083994;28;20460;-72
2023/02/12 09:48:47;;;;;;;;;;;;;;;-2.94;60.26;99562.06;5093992;28;19934;-72
2023/02/12 09:51:13;;;;;;;;;;;;;;;-2.50;58.73;99547.59;5083942;28;19976;-73
2023/02/12 09:53:42;;;;;;;;;;;;;;;-2.40;57.86;99571.38;5100392;27;19991;-72
2023/02/12 09:56:11;;;;;;;;;;;;;;;-2.57;57.96;99563.63;5104961;28;20291;-72
2023/02/12 09:58:40;;;;;;;;;;;;;;;-2.21;56.80;99575.19;5105448;28;19957;-72
2023/02/12 10:01:11;;;;;;;;;;;;;;;-2.21;56.65;99560.97;5103571;28;19928;-72
2023/02/12 10:03:36;;;;;;;;;;;;;;;-1.99;56.19;99577.81;5086297;28;20258;-72
2023/02/12 10:06:04;;;;;;;;;;;;;;;-1.66;54.33;99563.72;5087125;28;20287;-73
2023/02/12 10:08:35;;;;;;;;;;;;;;;-1.90;53.95;99579.28;5105539;28;20331;-72
2023/02/12 10:11:13;;;;;;;;;;;;;;;-1.91;54.64;99588.34;5100905;28;19934;-72
2023/02/12 10:13:44;;;;;;;;;;;;;;;-1.29;52.98;99579.53;5106683;28;19953;-73
2023/02/12 10:16:15;;;;;;;;;;;;;;;-1.52;52.71;99579.88;5083666;28;19927;-72
2023/02/12 10:18:53;;;;;;;;;;;;;;;-1.88;53.91;99604.03;5085563;28;19982;-72
2023/02/12 10:21:26;;;;;;;;;;;;;;;-0.86;52.69;99592.63;5084040;28;19963;-72
2023/02/12 10:24:00;;;;;;;;;;;;;;;0.62;50.23;99610.34;4736919;27;10000577;-73
2023/02/12 10:26:30;;;;;;;;;;;;;;;1.58;47.01;99609.56;5066550;28;19928;-72
2023/02/12 10:28:58;;;;;;;;;;;;;;;0.41;48.55;99603.44;5101800;28;19927;-73
2023/02/12 10:31:27;;;;;;;;;;;;;;;0.04;49.52;99606.63;5102074;28;19931;-73
2023/02/12 10:33:55;;;;;;;;;;;;;;;-0.41;49.89;99606.47;5106925;28;19932;-74
2023/02/12 10:36:36;;;;;;;;;;;;;;;-0.53;50.74;99615.16;5100887;28;19963;-74
2023/02/12 10:39:04;;;;;;;;;;;;;;;-0.94;51.53;99618.81;5103589;27;20567;-74
2023/02/12 10:41:36;;;;;;;;;;;;;;;-0.19;50.11;99625.91;5125164;27;20292;-74
2023/02/12 10:44:01;;;;;;;;;;;;;;;-0.20;50.58;99635.81;5126678;27;20036;-74
2023/02/12 10:46:29;;;;;;;;;;;;;;;0.61;50.03;99646.38;5109182;27;20053;-74
2023/02/12 10:48:57;;;;;;;;;;;;;;;1.26;48.06;99633.84;5086771;28;19928;-74
2023/02/12 10:51:38;;;;;;;;;;;;;;;2.67;45.50;99629.00;5084573;28;19928;-75
2023/02/12 10:54:22;;;;;;;;;;;;;;;2.77;44.45;99636.56;5086032;28;20318;-75
2023/02/12 10:56:49;;;;;;;;;;;;;;;1.42;47.02;99649.47;5095520;28;19935;-76
2023/02/12 10:59:21;;;;;;;;;;;;;;;2.20;45.61;99648.44;5068850;28;19931;-75
2023/02/12 11:01:47;;;;;;;;;;;;;;;2.49;44.77;99654.13;5084353;28;19932;-74
2023/02/12 11:04:23;;;;;;;;;;;;;;;3.47;44.16;99654.09;5085234;28;19935;-74
2023/02/12 11:07:06;;;;;;;;;;;;;;;4.08;42.49;99664.78;5094107;28;20000;-74
2023/02/12 11:09:35;;;;;;;;;;;;;;;4.79;41.14;99663.84;5105104;28;20281;-73
2023/02/12 11:12:02;;;;;;;;;;;;;;;4.92;39.13;99651.09;5082853;28;19928;-73
2023/02/12 11:14:29;;;;;;;;;;;;;;;4.76;39.32;99660.78;5083032;28;20271;-73
2023/02/12 11:16:56;;;;;;;;;;;;;;;3.86;40.21;99677.19;5085454;28;20031;-72
2023/02/12 11:19:24;;;;;;;;;;;;;;;2.28;41.97;99663.50;5081023;28;20381;-72
2023/02/12 11:21:50;;;;;;;;;;;;;;;1.80;43.54;99674.72;5086154;28;19928;-73
2023/02/12 11:24:28;;;;;;;;;;;;;;;1.60;44.61;99676.75;5087280;28;19928;-73
2023/02/12 11:27:09;;;;;;;;;;;;;;;3.00;42.66;99689.88;5089431;28;19928;-73
2023/02/12 11:29:35;;;;;;;;;;;;;;;4.48;40.36;99695.72;5086092;28;20030;-73
2023/02/12 11:32:02;;;;;;;;;;;;;;;5.66;38.90;99704.50;5070869;28;20042;-72
2023/02/12 11:34:28;;;;;;;;;;;;;;;6.25;36.69;99699.78;5105958;28;19931;-72
2023/02/12 11:36:54;;;;;;;;;;;;;;;5.18;37.35;99698.50;5107081;28;20306;-72
2023/02/12 11:39:22;;;;;;;;;;;;;;;4.45;38.55;99717.00;5090398;28;19965;-73
2023/02/12 11:41:51;;;;;;;;;;;;;;;4.96;37.36;99712.69;5107074;28;19927;-73
2023/02/12 11:44:19;;;;;;;;;;;;;;;3.73;38.58;99719.63;5089613;28;19935;-73
2023/02/12 11:46:46;;;;;;;;;;;;;;;2.84;41.56;99723.75;5088263;28;20395;-73
2023/02/12 11:49:18;;;;;;;;;;;;;;;3.80;39.99;99716.81;5087276;28;19981;-73
2023/02/12 11:51:46;;;;;;;;;;;;;;;4.72;38.14;99727.34;5106019;28;19931;-73
2023/02/12 11:54:17;;;;;;;;;;;;;;;3.73;39.04;99735.06;5106115;28;20390;-74
2023/02/12 11:56:44;;;;;;;;;;;;;;;3.25;40.45;99737.56;5104450;28;19935;-73
2023/02/12 11:59:16;;;;;;;;;;;;;;;3.30;40.73;99739.59;5107750;28;19928;-73
2023/02/12 12:01:44;;;;;;;;;;;;;;;3.30;40.30;99732.31;5104708;28;19934;-73
2023/02/12 12:04:13;;;;;;;;;;;;;;;3.65;40.55;99752.44;5087181;28;20314;-73
2023/02/12 12:06:40;;;;;;;;;;;;;;;4.27;38.33;99756.69;5104091;28;19928;-73
2023/02/12 12:09:09;;;;;;;;;;;;;;;3.60;39.04;99750.41;5105214;28;19932;-74
2023/02/12 12:11:43;;;;;;;;;;;;;;;3.16;39.83;99745.16;5099392;28;20345;-73
2023/02/12 12:14:14;;;;;;;;;;;;;;;2.82;40.47;99756.34;5103585;28;19928;-73
2023/02/12 12:19:53;;;;;;;;;;;;;;;1.59;43.37;99778.31;5100707;28;19932;-73
2023/02/12 12:22:30;;;;;;;;;;;;;;;1.51;43.15;99783.97;5099946;28;19927;-73
2023/02/12 12:25:05;;;;;;;;;;;;;;;1.05;44.72;99786.66;5100459;28;19928;-74
2023/02/12 12:30:23;;;;;;;;;;;;;;;3.51;40.67;99808.53;5096921;28;19973;-73
2023/02/12 12:32:51;;;;;;;;;;;;;;;4.76;38.56;99796.25;5080396;28;19942;-73
2023/02/12 12:35:24;;;;;;;;;;;;;;;4.67;37.92;99801.19;5075663;28;19936;-72
2023/02/12 12:37:53;;;;;;;;;;;;;;;2.74;40.76;99807.13;5079190;28;20631;-73
2023/02/12 12:40:27;;;;;;;;;;;;;;;1.39;43.52;99824.22;5089073;28;19935;-74
2023/02/12 12:43:08;;;;;;;;;;;;;;;0.41;46.08;99830.22;5099011;27;19927;-73
2023/02/12 12:45:50;;;;;;;;;;;;;;;-0.13;48.30;99823.97;5083778;28;19931;-73
2023/02/12 12:48:21;;;;;;;;;;;;;;;-0.12;48.53;99800.63;5104802;28;19928;-73
2023/02/12 12:50:57;;;;;;;;;;;;;;;-0.05;48.83;99837.22;5103584;28;19927;-73
2023/02/12 12:53:28;;;;;;;;;;;;;;;-0.03;48.42;99835.16;5101461;28;19931;-74
2023/02/12 12:56:04;;;;;;;;;;;;;;;-0.69;49.88;99838.47;5103354;28;20374;-73
2023/02/12 12:58:37;;;;;;;;;;;;;;;0.14;49.30;99824.81;5102627;28;19927;-73
2023/02/12 13:01:14;;;;;;;;;;;;;;;-0.33;49.08;99835.50;5100778;28;20420;-73